sensor_id;sensor_type;location;lat;lon;timestamp;pressure;altitude;pressure_sealevel;temperature;humidity
76285;BME280;65096;50.998;7.098;2023-02-28T00:01:17;102314.09;;;0.49;43.86
76285;BME280;65096;50.998;7.098;2023-02-28T00:03:44;102314.09;;;0.49;44.02
76285;BME280;65096;50.998;7.098;2023-02-28T00:06:11;102317.97;;;0.44;44.99
76285;BME280;65096;50.998;7.098;2023-02-28T00:08:39;102316.66;;;0.49;44.42
76285;BME280;65096;50.998;7.098;2023-02-28T00:11:08;102313.00;;;0.46;44.43
76285;BME280;65096;50.998;7.098;2023-02-28T00:13:38;102321.28;;;0.43;43.77
76285;BME280;65096;50.998;7.098;2023-02-28T00:16:06;102316.22;;;0.43;44.55
76285;BME280;65096;50.998;7.098;2023-02-28T00:18:33;102316.09;;;0.42;43.99
76285;BME280;65096;50.998;7.098;2023-02-28T00:21:00;102321.81;;;0.39;44.78
76285;BME280;65096;50.998;7.098;2023-02-28T00:23:27;102317.53;;;0.38;44.94
76285;BME280;65096;50.998;7.098;2023-02-28T00:25:56;102320.81;;;0.37;45.53
76285;BME280;65096;50.998;7.098;2023-02-28T00:28:22;102318.75;;;0.32;45.10
76285;BME280;65096;50.998;7.098;2023-02-28T00:30:49;102323.47;;;0.27;45.44
76285;BME280;65096;50.998;7.098;2023-02-28T00:33:16;102313.75;;;0.22;45.56
76285;BME280;65096;50.998;7.098;2023-02-28T00:35:43;102325.31;;;0.18;45.50
76285;BME280;65096;50.998;7.098;2023-02-28T00:38:11;102326.34;;;0.20;45.67
76285;BME280;65096;50.998;7.098;2023-02-28T00:40:38;102322.38;;;0.24;45.13
76285;BME280;65096;50.998;7.098;2023-02-28T00:43:06;102315.66;;;0.24;45.38
76285;BME280;65096;50.998;7.098;2023-02-28T00:45:33;102318.84;;;0.22;45.25
76285;BME280;65096;50.998;7.098;2023-02-28T00:47:59;102320.16;;;0.17;45.85
76285;BME280;65096;50.998;7.098;2023-02-28T00:50:26;102315.97;;;0.17;45.26
76285;BME280;65096;50.998;7.098;2023-02-28T00:52:53;102320.94;;;0.16;45.61
76285;BME280;65096;50.998;7.098;2023-02-28T00:55:20;102320.25;;;0.18;45.37
76285;BME280;65096;50.998;7.098;2023-02-28T00:57:46;102324.09;;;0.13;45.38
76285;BME280;65096;50.998;7.098;2023-02-28T01:00:15;102318.28;;;0.14;45.59
76285;BME280;65096;50.998;7.098;2023-02-28T01:02:42;102321.94;;;0.18;45.24
76285;BME280;65096;50.998;7.098;2023-02-28T01:05:08;102315.75;;;0.14;45.42
76285;BME280;65096;50.998;7.098;2023-02-28T01:07:35;102328.53;;;0.16;45.03
76285;BME280;65096;50.998;7.098;2023-02-28T01:10:02;102324.25;;;0.15;45.61
76285;BME280;65096;50.998;7.098;2023-02-28T01:12:29;102323.34;;;0.14;45.38
76285;BME280;65096;50.998;7.098;2023-02-28T01:14:55;102323.88;;;0.10;46.17
76285;BME280;65096;50.998;7.098;2023-02-28T01:17:24;102320.38;;;0.08;46.73
76285;BME280;65096;50.998;7.098;2023-02-28T01:19:53;102320.59;;;0.11;45.63
76285;BME280;65096;50.998;7.098;2023-02-28T01:22:19;102319.59;;;0.09;45.63
76285;BME280;65096;50.998;7.098;2023-02-28T01:24:46;102320.38;;;0.08;45.95
76285;BME280;65096;50.998;7.098;2023-02-28T01:27:13;102317.47;;;0.04;45.79
76285;BME280;65096;50.998;7.098;2023-02-28T01:29:40;102315.84;;;0.04;46.04
76285;BME280;65096;50.998;7.098;2023-02-28T01:32:06;102327.50;;;0.02;46.37
76285;BME280;65096;50.998;7.098;2023-02-28T01:34:34;102315.94;;;0.06;46.11
76285;BME280;65096;50.998;7.098;2023-02-28T01:37:01;102314.94;;;0.04;45.69
76285;BME280;65096;50.998;7.098;2023-02-28T01:39:28;102315.59;;;0.01;46.08
76285;BME280;65096;50.998;7.098;2023-02-28T01:41:55;102318.16;;;0.01;46.18
76285;BME280;65096;50.998;7.098;2023-02-28T01:44:56;102310.84;;;-0.06;46.55
76285;BME280;65096;50.998;7.098;2023-02-28T01:47:26;102308.69;;;-0.01;46.34
76285;BME280;65096;50.998;7.098;2023-02-28T01:49:55;102299.94;;;-0.05;46.37
76285;BME280;65096;50.998;7.098;2023-02-28T01:52:22;102300.81;;;-0.04;46.47
76285;BME280;65096;50.998;7.098;2023-02-28T01:54:52;102298.06;;;-0.07;46.44
76285;BME280;65096;50.998;7.098;2023-02-28T01:57:23;102302.25;;;-0.08;46.89
76285;BME280;65096;50.998;7.098;2023-02-28T01:59:53;102299.50;;;-0.11;46.52
76285;BME280;65096;50.998;7.098;2023-02-28T02:02:22;102301.25;;;-0.10;46.73
76285;BME280;65096;50.998;7.098;2023-02-28T02:04:52;102302.03;;;-0.11;46.24
76285;BME280;65096;50.998;7.098;2023-02-28T02:07:23;102306.00;;;-0.14;46.33
76285;BME280;65096;50.998;7.098;2023-02-28T02:10:00;102297.59;;;-0.13;47.87
76285;BME280;65096;50.998;7.098;2023-02-28T02:12:34;102295.19;;;-0.12;47.21
76285;BME280;65096;50.998;7.098;2023-02-28T02:15:07;102295.97;;;-0.13;46.64
76285;BME280;65096;50.998;7.098;2023-02-28T02:17:41;102289.22;;;-0.12;47.05
76285;BME280;65096;50.998;7.098;2023-02-28T02:20:32;102284.94;;;-0.13;48.25
76285;BME280;65096;50.998;7.098;2023-02-28T02:23:43;102281.94;;;-0.19;47.99
76285;BME280;65096;50.998;7.098;2023-02-28T02:26:50;102279.31;;;-0.21;47.33
76285;BME280;65096;50.998;7.098;2023-02-28T02:29:42;102273.78;;;-0.27;48.07
76285;BME280;65096;50.998;7.098;2023-02-28T02:32:45;102277.84;;;-0.29;47.24
76285;BME280;65096;50.998;7.098;2023-02-28T02:35:25;102276.97;;;-0.29;47.47
76285;BME280;65096;50.998;7.098;2023-02-28T02:37:58;102275.09;;;-0.32;46.38
76285;BME280;65096;50.998;7.098;2023-02-28T02:40:33;102273.31;;;-0.33;47.21
76285;BME280;65096;50.998;7.098;2023-02-28T02:43:05;102269.44;;;-0.39;47.07
76285;BME280;65096;50.998;7.098;2023-02-28T02:45:35;102272.19;;;-0.36;46.28
76285;BME280;65096;50.998;7.098;2023-02-28T02:48:07;102276.91;;;-0.41;46.63
76285;BME280;65096;50.998;7.098;2023-02-28T02:50:41;102268.09;;;-0.46;46.55
76285;BME280;65096;50.998;7.098;2023-02-28T02:53:10;102279.34;;;-0.42;46.21
76285;BME280;65096;50.998;7.098;2023-02-28T02:55:41;102275.16;;;-0.42;46.37
76285;BME280;65096;50.998;7.098;2023-02-28T02:58:13;102274.38;;;-0.41;46.40
76285;BME280;65096;50.998;7.098;2023-02-28T03:00:45;102273.63;;;-0.40;46.13
76285;BME280;65096;50.998;7.098;2023-02-28T03:03:14;102254.75;;;-0.55;46.26
76285;BME280;65096;50.998;7.098;2023-02-28T03:05:46;102283.78;;;-0.40;46.19
76285;BME280;65096;50.998;7.098;2023-02-28T03:08:14;102273.63;;;-0.40;46.03
76285;BME280;65096;50.998;7.098;2023-02-28T03:10:42;102277.03;;;-0.39;46.13
76285;BME280;65096;50.998;7.098;2023-02-28T03:13:40;102275.06;;;-0.43;46.09
76285;BME280;65096;50.998;7.098;2023-02-28T03:16:34;102276.06;;;-0.41;46.59
76285;BME280;65096;50.998;7.098;2023-02-28T03:19:11;102266.34;;;-0.47;46.14
76285;BME280;65096;50.998;7.098;2023-02-28T03:21:50;102273.53;;;-0.41;46.46
76285;BME280;65096;50.998;7.098;2023-02-28T03:24:24;102266.44;;;-0.45;45.91
76285;BME280;65096;50.998;7.098;2023-02-28T03:26:57;102267.00;;;-0.49;46.16
76285;BME280;65096;50.998;7.098;2023-02-28T03:29:28;102267.97;;;-0.47;46.21
76285;BME280;65096;50.998;7.098;2023-02-28T03:32:04;102264.69;;;-0.46;46.09
76285;BME280;65096;50.998;7.098;2023-02-28T03:34:34;102269.44;;;-0.51;45.91
76285;BME280;65096;50.998;7.098;2023-02-28T03:37:07;102268.41;;;-0.53;46.63
76285;BME280;65096;50.998;7.098;2023-02-28T03:39:38;102268.66;;;-0.50;45.88
76285;BME280;65096;50.998;7.098;2023-02-28T03:42:09;102268.41;;;-0.53;46.03
76285;BME280;65096;50.998;7.098;2023-02-28T03:44:39;102273.38;;;-0.54;46.21
76285;BME280;65096;50.998;7.098;2023-02-28T03:47:11;102271.47;;;-0.57;46.62
76285;BME280;65096;50.998;7.098;2023-02-28T03:49:42;102264.88;;;-0.55;46.24
76285;BME280;65096;50.998;7.098;2023-02-28T03:52:14;102266.41;;;-0.57;46.49
76285;BME280;65096;50.998;7.098;2023-02-28T03:54:43;102266.63;;;-0.54;46.18
76285;BME280;65096;50.998;7.098;2023-02-28T03:57:15;102270.06;;;-0.53;46.22
76285;BME280;65096;50.998;7.098;2023-02-28T03:59:46;102272.25;;;-0.58;46.63
76285;BME280;65096;50.998;7.098;2023-02-28T04:02:14;102270.38;;;-0.60;46.83
76285;BME280;65096;50.998;7.098;2023-02-28T04:04:41;102265.94;;;-0.63;47.07
76285;BME280;65096;50.998;7.098;2023-02-28T04:07:15;102275.97;;;-0.64;47.16
76285;BME280;65096;50.998;7.098;2023-02-28T04:09:42;102270.13;;;-0.63;47.19
76285;BME280;65096;50.998;7.098;2023-02-28T04:12:09;102271.69;;;-0.65;47.13
76285;BME280;65096;50.998;7.098;2023-02-28T04:14:36;102282.44;;;-0.68;47.27
76285;BME280;65096;50.998;7.098;2023-02-28T04:17:03;102279.91;;;-0.68;48.08
76285;BME280;65096;50.998;7.098;2023-02-28T04:19:29;102280.47;;;-0.72;47.23
76285;BME280;65096;50.998;7.098;2023-02-28T04:21:56;102279.81;;;-0.69;47.22
76285;BME280;65096;50.998;7.098;2023-02-28T04:24:24;102247.44;;;-0.95;47.48
76285;BME280;65096;50.998;7.098;2023-02-28T04:26:53;102285.06;;;-0.78;48.10
76285;BME280;65096;50.998;7.098;2023-02-28T04:29:22;102286.03;;;-0.76;47.59
76285;BME280;65096;50.998;7.098;2023-02-28T04:31:49;102280.00;;;-0.78;48.41
76285;BME280;65096;50.998;7.098;2023-02-28T04:34:16;102276.81;;;-0.75;47.92
76285;BME280;65096;50.998;7.098;2023-02-28T04:36:44;102291.00;;;-0.77;47.49
76285;BME280;65096;50.998;7.098;2023-02-28T04:39:11;102289.75;;;-0.82;48.29
76285;BME280;65096;50.998;7.098;2023-02-28T04:41:39;102285.25;;;-0.86;48.03
76285;BME280;65096;50.998;7.098;2023-02-28T04:44:05;102290.41;;;-0.85;48.03
76285;BME280;65096;50.998;7.098;2023-02-28T04:46:32;102296.50;;;-0.83;47.85
76285;BME280;65096;50.998;7.098;2023-02-28T04:48:59;102296.88;;;-0.88;48.20
76285;BME280;65096;50.998;7.098;2023-02-28T04:51:26;102295.47;;;-0.85;47.96
76285;BME280;65096;50.998;7.098;2023-02-28T04:53:53;102280.88;;;-0.99;47.77
76285;BME280;65096;50.998;7.098;2023-02-28T04:56:20;102298.53;;;-0.89;47.92
76285;BME280;65096;50.998;7.098;2023-02-28T04:58:49;102295.03;;;-0.91;47.94
76285;BME280;65096;50.998;7.098;2023-02-28T05:01:21;102306.78;;;-0.92;47.96
76285;BME280;65096;50.998;7.098;2023-02-28T05:03:51;102307.78;;;-0.89;47.72
76285;BME280;65096;50.998;7.098;2023-02-28T05:06:19;102310.97;;;-0.92;47.74
76285;BME280;65096;50.998;7.098;2023-02-28T05:08:46;102310.84;;;-0.94;48.21
76285;BME280;65096;50.998;7.098;2023-02-28T05:11:16;102321.19;;;-0.91;47.74
76285;BME280;65096;50.998;7.098;2023-02-28T05:13:43;102321.97;;;-0.92;48.05
76285;BME280;65096;50.998;7.098;2023-02-28T05:16:11;102321.50;;;-0.98;48.06
76285;BME280;65096;50.998;7.098;2023-02-28T05:18:38;102327.19;;;-1.00;47.95
76285;BME280;65096;50.998;7.098;2023-02-28T05:21:05;102323.69;;;-1.02;47.73
76285;BME280;65096;50.998;7.098;2023-02-28T05:23:32;102321.91;;;-1.03;48.23
76285;BME280;65096;50.998;7.098;2023-02-28T05:25:58;102324.44;;;-1.03;47.89
76285;BME280;65096;50.998;7.098;2023-02-28T05:28:25;102320.72;;;-0.97;47.50
76285;BME280;65096;50.998;7.098;2023-02-28T05:30:52;102318.88;;;-0.99;47.82
76285;BME280;65096;50.998;7.098;2023-02-28T05:33:20;102310.59;;;-0.97;47.43
76285;BME280;65096;50.998;7.098;2023-02-28T05:35:46;102313.50;;;-0.92;47.60
76285;BME280;65096;50.998;7.098;2023-02-28T05:38:13;102309.97;;;-0.94;47.80
76285;BME280;65096;50.998;7.098;2023-02-28T05:40:40;102310.38;;;-1.00;47.66
76285;BME280;65096;50.998;7.098;2023-02-28T05:43:10;102322.63;;;-0.94;47.92
76285;BME280;65096;50.998;7.098;2023-02-28T05:45:38;102317.03;;;-0.90;46.85
76285;BME280;65096;50.998;7.098;2023-02-28T05:48:05;102312.78;;;-1.01;47.70
76285;BME280;65096;50.998;7.098;2023-02-28T05:50:33;102319.50;;;-1.02;47.75
76285;BME280;65096;50.998;7.098;2023-02-28T05:53:00;102314.66;;;-0.99;48.16
76285;BME280;65096;50.998;7.098;2023-02-28T05:55:26;102324.44;;;-1.03;47.91
76285;BME280;65096;50.998;7.098;2023-02-28T05:57:55;102323.41;;;-1.05;48.06
76285;BME280;65096;50.998;7.098;2023-02-28T06:00:22;102311.19;;;-1.11;48.10
76285;BME280;65096;50.998;7.098;2023-02-28T06:02:49;102318.13;;;-1.08;48.06
76285;BME280;65096;50.998;7.098;2023-02-28T06:05:17;102313.97;;;-1.08;47.93
76285;BME280;65096;50.998;7.098;2023-02-28T06:07:45;102310.28;;;-1.11;48.18
76285;BME280;65096;50.998;7.098;2023-02-28T06:10:12;102308.78;;;-1.09;47.90
76285;BME280;65096;50.998;7.098;2023-02-28T06:12:40;102314.63;;;-1.10;48.08
76285;BME280;65096;50.998;7.098;2023-02-28T06:15:11;102315.72;;;-1.07;47.67
76285;BME280;65096;50.998;7.098;2023-02-28T06:17:38;102315.72;;;-1.07;47.46
76285;BME280;65096;50.998;7.098;2023-02-28T06:20:06;102319.91;;;-1.07;47.92
76285;BME280;65096;50.998;7.098;2023-02-28T06:22:33;102319.56;;;-1.12;48.11
76285;BME280;65096;50.998;7.098;2023-02-28T06:25:02;102329.03;;;-1.09;48.23
76285;BME280;65096;50.998;7.098;2023-02-28T06:27:30;102327.16;;;-1.12;48.36
76285;BME280;65096;50.998;7.098;2023-02-28T06:29:57;102329.69;;;-1.12;47.94
76285;BME280;65096;50.998;7.098;2023-02-28T06:32:24;102334.25;;;-1.18;48.44
76285;BME280;65096;50.998;7.098;2023-02-28T06:34:51;102331.31;;;-1.12;47.54
76285;BME280;65096;50.998;7.098;2023-02-28T06:37:18;102337.66;;;-1.17;47.76
76285;BME280;65096;50.998;7.098;2023-02-28T06:39:45;102339.19;;;-1.19;48.12
76285;BME280;65096;50.998;7.098;2023-02-28T06:42:13;102345.38;;;-1.16;47.96
76285;BME280;65096;50.998;7.098;2023-02-28T06:44:40;102345.03;;;-1.20;48.09
76285;BME280;65096;50.998;7.098;2023-02-28T06:47:08;102356.78;;;-1.21;48.51
76285;BME280;65096;50.998;7.098;2023-02-28T06:49:36;102351.72;;;-1.21;48.11
76285;BME280;65096;50.998;7.098;2023-02-28T06:52:04;102356.03;;;-1.20;48.42
76285;BME280;65096;50.998;7.098;2023-02-28T06:54:30;102365.38;;;-1.19;47.80
76285;BME280;65096;50.998;7.098;2023-02-28T06:56:57;102360.59;;;-1.26;48.50
76285;BME280;65096;50.998;7.098;2023-02-28T06:59:26;102363.25;;;-1.24;48.14
76285;BME280;65096;50.998;7.098;2023-02-28T07:01:52;102375.03;;;-1.25;48.28
76285;BME280;65096;50.998;7.098;2023-02-28T07:04:20;102368.28;;;-1.24;47.97
76285;BME280;65096;50.998;7.098;2023-02-28T07:06:47;102370.44;;;-1.19;47.76
76285;BME280;65096;50.998;7.098;2023-02-28T07:09:13;102367.03;;;-1.19;48.48
76285;BME280;65096;50.998;7.098;2023-02-28T07:11:40;102381.94;;;-1.12;47.77
76285;BME280;65096;50.998;7.098;2023-02-28T07:14:08;102381.28;;;-1.10;50.05
76285;BME280;65096;50.998;7.098;2023-02-28T07:16:36;102373.66;;;-1.00;49.00
76285;BME280;65096;50.998;7.098;2023-02-28T07:19:03;102374.13;;;-0.94;49.67
76285;BME280;65096;50.998;7.098;2023-02-28T07:21:29;102372.47;;;-0.83;47.95
76285;BME280;65096;50.998;7.098;2023-02-28T07:23:56;102374.56;;;-0.77;47.86
76285;BME280;65096;50.998;7.098;2023-02-28T07:26:23;102373.53;;;-0.69;47.32
76285;BME280;65096;50.998;7.098;2023-02-28T07:28:49;102371.72;;;-0.60;47.17
76285;BME280;65096;50.998;7.098;2023-02-28T07:31:16;102378.38;;;-0.51;46.63
76285;BME280;65096;50.998;7.098;2023-02-28T07:33:45;102330.06;;;-0.64;45.79
76285;BME280;65096;50.998;7.098;2023-02-28T07:36:13;102382.50;;;-0.30;45.55
76285;BME280;65096;50.998;7.098;2023-02-28T07:38:41;102378.06;;;-0.22;44.99
76285;BME280;65096;50.998;7.098;2023-02-28T07:41:09;102383.28;;;-0.09;45.13
76285;BME280;65096;50.998;7.098;2023-02-28T07:43:36;102381.66;;;0.03;44.16
76285;BME280;65096;50.998;7.098;2023-02-28T07:46:03;102379.91;;;0.13;43.78
76285;BME280;65096;50.998;7.098;2023-02-28T07:48:30;102382.34;;;0.23;44.60
76285;BME280;65096;50.998;7.098;2023-02-28T07:50:59;102376.22;;;0.43;44.00
76285;BME280;65096;50.998;7.098;2023-02-28T07:53:26;102377.09;;;0.55;43.62
76285;BME280;65096;50.998;7.098;2023-02-28T07:55:55;102376.69;;;0.72;42.99
76285;BME280;65096;50.998;7.098;2023-02-28T07:58:22;102377.00;;;0.88;42.49
76285;BME280;65096;50.998;7.098;2023-02-28T08:00:49;102373.47;;;1.09;42.57
76285;BME280;65096;50.998;7.098;2023-02-28T08:03:16;102380.00;;;1.30;41.59
76285;BME280;65096;50.998;7.098;2023-02-28T08:05:43;102375.97;;;1.57;40.79
76285;BME280;65096;50.998;7.098;2023-02-28T08:08:11;102379.19;;;1.79;40.54
76285;BME280;65096;50.998;7.098;2023-02-28T08:10:38;102377.88;;;2.09;40.99
76285;BME280;65096;50.998;7.098;2023-02-28T08:13:05;102376.25;;;2.35;39.81
76285;BME280;65096;50.998;7.098;2023-02-28T08:15:31;102373.22;;;2.54;39.06
76285;BME280;65096;50.998;7.098;2023-02-28T08:17:58;102373.94;;;2.64;38.35
76285;BME280;65096;50.998;7.098;2023-02-28T08:20:26;102367.47;;;2.82;37.87
76285;BME280;65096;50.998;7.098;2023-02-28T08:22:53;102376.97;;;3.11;38.77
76285;BME280;65096;50.998;7.098;2023-02-28T08:25:21;102371.09;;;3.53;36.87
76285;BME280;65096;50.998;7.098;2023-02-28T08:27:50;102371.72;;;3.63;34.91
76285;BME280;65096;50.998;7.098;2023-02-28T08:30:17;102361.59;;;3.92;36.62
76285;BME280;65096;50.998;7.098;2023-02-28T08:32:43;102358.19;;;4.21;35.85
76285;BME280;65096;50.998;7.098;2023-02-28T08:35:10;102373.97;;;4.43;35.31
76285;BME280;65096;50.998;7.098;2023-02-28T08:37:37;102365.31;;;4.55;35.21
76285;BME280;65096;50.998;7.098;2023-02-28T08:40:05;102362.75;;;4.70;34.39
76285;BME280;65096;50.998;7.098;2023-02-28T08:42:33;102375.16;;;4.93;32.03
76285;BME280;65096;50.998;7.098;2023-02-28T08:45:00;102358.53;;;5.16;31.58
76285;BME280;65096;50.998;7.098;2023-02-28T08:47:26;102363.75;;;5.33;30.95
76285;BME280;65096;50.998;7.098;2023-02-28T08:49:53;102365.59;;;5.52;29.33
76285;BME280;65096;50.998;7.098;2023-02-28T08:52:20;102356.78;;;5.63;30.03
76285;BME280;65096;50.998;7.098;2023-02-28T08:54:47;102359.91;;;5.89;30.58
76285;BME280;65096;50.998;7.098;2023-02-28T08:57:14;102363.25;;;6.04;28.96
76285;BME280;65096;50.998;7.098;2023-02-28T08:59:42;102360.78;;;5.90;27.47
76285;BME280;65096;50.998;7.098;2023-02-28T09:02:12;102357.50;;;6.24;31.00
76285;BME280;65096;50.998;7.098;2023-02-28T09:04:39;102349.06;;;6.27;29.09
76285;BME280;65096;50.998;7.098;2023-02-28T09:07:06;102353.69;;;6.34;30.20
76285;BME280;65096;50.998;7.098;2023-02-28T09:09:32;102354.00;;;6.58;27.72
76285;BME280;65096;50.998;7.098;2023-02-28T09:11:59;102357.75;;;6.64;28.11
76285;BME280;65096;50.998;7.098;2023-02-28T09:14:26;102355.31;;;6.85;30.03
76285;BME280;65096;50.998;7.098;2023-02-28T09:16:55;102353.13;;;7.29;28.95
76285;BME280;65096;50.998;7.098;2023-02-28T09:19:21;102352.94;;;7.62;27.49
76285;BME280;65096;50.998;7.098;2023-02-28T09:21:48;102344.53;;;7.84;28.09
76285;BME280;65096;50.998;7.098;2023-02-28T09:24:15;102337.09;;;7.90;27.61
76285;BME280;65096;50.998;7.098;2023-02-28T09:26:42;102350.28;;;7.98;25.92
76285;BME280;65096;50.998;7.098;2023-02-28T09:29:09;102337.03;;;7.89;25.37
76285;BME280;65096;50.998;7.098;2023-02-28T09:31:36;102347.44;;;7.92;25.05
76285;BME280;65096;50.998;7.098;2023-02-28T09:34:04;102331.06;;;8.09;27.05
76285;BME280;65096;50.998;7.098;2023-02-28T09:36:31;102346.66;;;8.13;25.85
76285;BME280;65096;50.998;7.098;2023-02-28T09:38:58;102337.88;;;8.29;25.14
76285;BME280;65096;50.998;7.098;2023-02-28T09:41:26;102327.34;;;8.64;26.22
76285;BME280;65096;50.998;7.098;2023-02-28T09:43:57;102331.22;;;8.75;25.48
76285;BME280;65096;50.998;7.098;2023-02-28T09:46:32;102329.81;;;9.05;24.39
76285;BME280;65096;50.998;7.098;2023-02-28T09:49:00;102322.47;;;9.36;23.97
76285;BME280;65096;50.998;7.098;2023-02-28T09:51:37;102323.72;;;9.24;23.10
76285;BME280;65096;50.998;7.098;2023-02-28T09:54:09;102322.84;;;9.47;23.19
76285;BME280;65096;50.998;7.098;2023-02-28T09:56:40;102326.00;;;9.87;25.68
76285;BME280;65096;50.998;7.098;2023-02-28T09:59:15;102336.13;;;9.81;25.07
76285;BME280;65096;50.998;7.098;2023-02-28T10:01:49;102331.91;;;9.83;22.90
76285;BME280;65096;50.998;7.098;2023-02-28T10:04:33;102322.44;;;10.07;22.92
76285;BME280;65096;50.998;7.098;2023-02-28T10:07:10;102317.81;;;10.47;23.85
76285;BME280;65096;50.998;7.098;2023-02-28T10:09:45;102306.53;;;10.72;24.30
76285;BME280;65096;50.998;7.098;2023-02-28T10:12:15;102305.28;;;10.59;22.49
76285;BME280;65096;50.998;7.098;2023-02-28T10:14:45;102311.94;;;10.52;23.36
76285;BME280;65096;50.998;7.098;2023-02-28T10:17:15;102309.06;;;10.70;23.37
76285;BME280;65096;50.998;7.098;2023-02-28T10:19:47;102306.75;;;10.78;23.04
76285;BME280;65096;50.998;7.098;2023-02-28T10:22:21;102314.38;;;11.03;23.46
76285;BME280;65096;50.998;7.098;2023-02-28T10:24:51;102313.81;;;10.85;21.51
76285;BME280;65096;50.998;7.098;2023-02-28T10:27:20;102318.75;;;11.05;23.26
76285;BME280;65096;50.998;7.098;2023-02-28T10:29:50;102300.25;;;11.20;22.14
76285;BME280;65096;50.998;7.098;2023-02-28T10:32:18;102312.81;;;11.37;21.33
76285;BME280;65096;50.998;7.098;2023-02-28T10:34:51;102313.25;;;11.51;21.65
76285;BME280;65096;50.998;7.098;2023-02-28T10:37:20;102306.31;;;11.50;21.80
76285;BME280;65096;50.998;7.098;2023-02-28T10:39:47;102265.75;;;11.77;21.91
76285;BME280;65096;50.998;7.098;2023-02-28T10:42:23;102288.16;;;11.78;21.71
76285;BME280;65096;50.998;7.098;2023-02-28T10:45:06;102290.44;;;11.98;21.68
76285;BME280;65096;50.998;7.098;2023-02-28T10:47:34;102285.09;;;12.27;22.48
76285;BME280;65096;50.998;7.098;2023-02-28T10:50:02;102285.38;;;12.37;21.34
76285;BME280;65096;50.998;7.098;2023-02-28T10:52:36;102280.09;;;12.33;21.13
76285;BME280;65096;50.998;7.098;2023-02-28T10:55:15;102276.78;;;12.04;21.30
76285;BME280;65096;50.998;7.098;2023-02-28T10:57:46;102287.19;;;11.43;20.66
76285;BME280;65096;50.998;7.098;2023-02-28T11:00:15;102291.28;;;11.07;22.42
76285;BME280;65096;50.998;7.098;2023-02-28T11:02:42;102281.53;;;11.27;22.74
76285;BME280;65096;50.998;7.098;2023-02-28T11:05:28;102286.91;;;11.34;22.72
76285;BME280;65096;50.998;7.098;2023-02-28T11:07:59;102284.03;;;11.53;21.74
76285;BME280;65096;50.998;7.098;2023-02-28T11:10:30;102268.22;;;12.07;21.84
76285;BME280;65096;50.998;7.098;2023-02-28T11:13:01;102261.13;;;12.34;22.12
76285;BME280;65096;50.998;7.098;2023-02-28T11:15:30;102258.34;;;12.25;21.37
76285;BME280;65096;50.998;7.098;2023-02-28T11:17:59;102255.91;;;11.96;21.77
76285;BME280;65096;50.998;7.098;2023-02-28T11:20:28;102262.34;;;11.79;22.35
76285;BME280;65096;50.998;7.098;2023-02-28T11:22:58;102264.72;;;11.70;22.71
76285;BME280;65096;50.998;7.098;2023-02-28T11:25:30;102259.50;;;11.69;22.36
76285;BME280;65096;50.998;7.098;2023-02-28T11:27:59;102265.06;;;11.51;22.35
76285;BME280;65096;50.998;7.098;2023-02-28T11:30:33;102252.41;;;11.32;21.96
76285;BME280;65096;50.998;7.098;2023-02-28T11:33:20;102257.22;;;11.19;22.60
76285;BME280;65096;50.998;7.098;2023-02-28T11:35:49;102260.69;;;10.91;22.31
76285;BME280;65096;50.998;7.098;2023-02-28T11:38:17;102265.56;;;10.81;23.05
76285;BME280;65096;50.998;7.098;2023-02-28T11:40:48;102266.06;;;10.69;22.38
76285;BME280;65096;50.998;7.098;2023-02-28T11:43:28;102239.22;;;10.36;23.96
76285;BME280;65096;50.998;7.098;2023-02-28T11:46:08;102262.28;;;10.33;23.63
76285;BME280;65096;50.998;7.098;2023-02-28T11:48:46;102269.16;;;10.32;22.92
76285;BME280;65096;50.998;7.098;2023-02-28T11:51:21;102271.13;;;10.39;22.38
76285;BME280;65096;50.998;7.098;2023-02-28T11:54:16;102265.47;;;10.51;22.97
76285;BME280;65096;50.998;7.098;2023-02-28T11:56:52;102266.56;;;10.32;23.20
76285;BME280;65096;50.998;7.098;2023-02-28T11:59:38;102267.97;;;10.23;23.79
76285;BME280;65096;50.998;7.098;2023-02-28T12:02:20;102268.88;;;10.25;23.17
76285;BME280;65096;50.998;7.098;2023-02-28T12:04:58;102260.69;;;10.10;22.75
76285;BME280;65096;50.998;7.098;2023-02-28T12:07:33;102267.84;;;9.68;23.22
76285;BME280;65096;50.998;7.098;2023-02-28T12:10:09;102268.19;;;9.54;23.67
76285;BME280;65096;50.998;7.098;2023-02-28T12:12:46;102251.59;;;9.46;24.55
76285;BME280;65096;50.998;7.098;2023-02-28T12:15:26;102258.63;;;9.75;24.26
76285;BME280;65096;50.998;7.098;2023-02-28T12:18:09;102267.56;;;9.13;23.39
76285;BME280;65096;50.998;7.098;2023-02-28T12:20:48;102263.84;;;9.29;24.69
76285;BME280;65096;50.998;7.098;2023-02-28T12:23:25;102256.13;;;9.07;24.50
76285;BME280;65096;50.998;7.098;2023-02-28T12:26:02;102255.47;;;9.11;24.57
76285;BME280;65096;50.998;7.098;2023-02-28T12:28:38;102249.88;;;9.23;24.77
76285;BME280;65096;50.998;7.098;2023-02-28T12:31:12;102245.88;;;9.31;24.08
76285;BME280;65096;50.998;7.098;2023-02-28T12:33:45;102250.75;;;9.23;24.52
76285;BME280;65096;50.998;7.098;2023-02-28T12:36:18;102240.31;;;9.18;24.12
76285;BME280;65096;50.998;7.098;2023-02-28T12:38:49;102245.81;;;9.29;24.47
76285;BME280;65096;50.998;7.098;2023-02-28T12:41:23;102253.00;;;9.14;24.40
76285;BME280;65096;50.998;7.098;2023-02-28T12:43:57;102236.63;;;8.90;23.07
76285;BME280;65096;50.998;7.098;2023-02-28T12:46:33;102232.84;;;9.26;24.49
76285;BME280;65096;50.998;7.098;2023-02-28T12:49:05;102218.38;;;9.53;24.70
76285;BME280;65096;50.998;7.098;2023-02-28T12:51:36;102219.09;;;9.74;24.79
76285;BME280;65096;50.998;7.098;2023-02-28T12:54:10;102208.44;;;9.64;23.86
76285;BME280;65096;50.998;7.098;2023-02-28T12:56:46;102214.38;;;9.86;24.58
76285;BME280;65096;50.998;7.098;2023-02-28T12:59:22;102205.97;;;9.67;23.71
76285;BME280;65096;50.998;7.098;2023-02-28T13:05:50;102189.38;;;10.10;23.67
76285;BME280;65096;50.998;7.098;2023-02-28T13:11:27;102190.59;;;10.21;23.29
76285;BME280;65096;50.998;7.098;2023-02-28T13:14:02;102192.81;;;10.36;23.71
76285;BME280;65096;50.998;7.098;2023-02-28T13:16:50;102197.50;;;10.49;22.88